createdAt,value
2019-05-20T00:01:05.252Z,12.47
2019-05-20T00:03:35.873Z,13.80
2019-05-20T00:06:06.253Z,13.15
2019-05-20T00:08:38.039Z,13.60
2019-05-20T00:11:08.773Z,13.30
2019-05-20T00:13:39.394Z,13.83
2019-05-20T00:16:10.171Z,14.15
2019-05-20T00:18:40.850Z,13.70
2019-05-20T00:21:11.477Z,13.55
2019-05-20T00:23:43.351Z,14.07
2019-05-20T00:26:13.607Z,13.83
2019-05-20T00:28:43.859Z,13.25
2019-05-20T00:31:14.465Z,14.28
2019-05-20T00:33:44.820Z,13.70
2019-05-20T00:36:15.086Z,13.98
2019-05-20T00:38:47.026Z,14.98
2019-05-20T00:41:17.620Z,14.10
2019-05-20T00:43:47.899Z,13.80
2019-05-20T00:46:18.493Z,13.72
2019-05-20T00:48:48.865Z,14.33
2019-05-20T00:51:19.107Z,14.07
2019-05-20T00:53:49.675Z,15.15
2019-05-20T00:56:20.334Z,14.98
2019-05-20T00:58:50.622Z,14.43
2019-05-20T01:01:21.252Z,14.58
2019-05-20T01:03:51.887Z,14.73
2019-05-20T01:06:22.610Z,15.15
2019-05-20T01:08:53.245Z,14.47
2019-05-20T01:11:23.595Z,15.32
2019-05-20T01:13:54.163Z,15.23
2019-05-20T01:16:24.512Z,15.23
2019-05-20T01:18:54.735Z,15.23
2019-05-20T01:21:25.300Z,15.90
2019-05-20T01:23:55.648Z,16.23
2019-05-20T01:26:26.236Z,15.90
2019-05-20T01:28:56.623Z,15.95
2019-05-20T01:31:27.200Z,17.00
2019-05-20T01:33:57.854Z,16.35
2019-05-20T01:36:28.492Z,16.52
2019-05-20T01:38:59.172Z,17.27
2019-05-20T01:41:29.453Z,16.55
2019-05-20T01:43:59.738Z,16.55
2019-05-20T01:46:29.947Z,17.15
2019-05-20T01:49:00.560Z,17.17
2019-05-20T01:51:31.282Z,17.45
2019-05-20T01:54:02.602Z,18.00
2019-05-20T01:56:32.981Z,17.50
2019-05-20T01:59:03.368Z,18.85
2019-05-20T02:01:33.610Z,19.20
2019-05-20T02:04:03.833Z,19.25
2019-05-20T02:06:34.936Z,20.00
2019-05-20T02:09:08.610Z,19.92
2019-05-20T02:11:38.845Z,19.65
2019-05-20T02:14:13.647Z,18.87
2019-05-20T02:16:43.884Z,19.82
2019-05-20T02:19:14.167Z,20.43
2019-05-20T02:21:44.771Z,19.42
2019-05-20T02:24:15.063Z,19.77
2019-05-20T02:26:45.659Z,20.60
2019-05-20T02:29:16.308Z,19.90
2019-05-20T02:31:46.614Z,20.35
2019-05-20T02:34:17.204Z,21.40
2019-05-20T02:36:47.876Z,19.37
2019-05-20T02:39:18.199Z,20.45
2019-05-20T02:41:48.465Z,20.77
2019-05-20T02:44:18.707Z,19.73
2019-05-20T02:46:48.992Z,21.00
2019-05-20T02:49:19.668Z,21.73
2019-05-20T02:51:50.360Z,20.43
2019-05-20T02:54:21.085Z,20.08
2019-05-20T02:56:51.368Z,20.25
2019-05-20T02:59:21.685Z,20.08
2019-05-20T03:01:51.919Z,19.85
2019-05-20T03:04:22.139Z,19.27
2019-05-20T03:06:52.466Z,18.70
2019-05-20T03:09:23.032Z,17.92
2019-05-20T03:11:53.345Z,18.55
2019-05-20T03:14:23.642Z,17.70
2019-05-20T03:16:53.961Z,17.55
2019-05-20T03:19:24.188Z,17.48
2019-05-20T03:21:54.425Z,16.32
2019-05-20T03:24:24.690Z,17.62
2019-05-20T03:26:55.388Z,17.62
2019-05-20T03:29:25.710Z,16.20
2019-05-20T03:31:55.929Z,15.70
2019-05-20T03:34:45.469Z,14.63
2019-05-20T03:36:58.099Z,13.78
2019-05-20T03:39:28.716Z,13.90
2019-05-20T03:41:59.014Z,13.08
2019-05-20T03:44:29.583Z,13.58
2019-05-20T03:46:59.889Z,13.30
2019-05-20T03:49:30.117Z,12.60
2019-05-20T03:52:00.708Z,12.60
2019-05-20T03:54:31.393Z,11.73
2019-05-20T03:57:01.668Z,12.30
2019-05-20T03:59:31.910Z,11.22
2019-05-20T04:02:02.146Z,11.15
2019-05-20T04:04:32.900Z,11.75
2019-05-20T04:07:03.223Z,11.97
2019-05-20T04:09:33.496Z,11.60
2019-05-20T04:12:04.789Z,10.60
2019-05-20T04:14:35.396Z,11.40
2019-05-20T04:17:06.060Z,10.93
2019-05-20T04:19:36.734Z,11.25
2019-05-20T04:22:07.020Z,9.98
2019-05-20T04:24:37.295Z,10.98
2019-05-20T04:27:07.540Z,10.18
2019-05-20T04:29:38.123Z,9.98
2019-05-20T04:32:08.699Z,9.55
2019-05-20T04:34:39.044Z,9.88
2019-05-20T04:37:11.123Z,9.00
2019-05-20T04:39:41.417Z,9.13
2019-05-20T04:42:11.603Z,9.63
2019-05-20T04:44:42.220Z,9.28
2019-05-20T04:47:12.983Z,9.28
2019-05-20T04:49:43.296Z,8.75
2019-05-20T04:52:13.861Z,9.25
2019-05-20T04:54:44.134Z,9.20
2019-05-20T04:57:14.441Z,8.13
2019-05-20T04:59:44.618Z,7.85
2019-05-20T05:02:14.835Z,7.45
2019-05-20T05:04:45.128Z,8.83
2019-05-20T05:07:15.356Z,8.60
2019-05-20T05:09:45.573Z,8.03
2019-05-20T05:12:15.811Z,8.03
2019-05-20T05:14:46.105Z,7.90
2019-05-20T05:17:16.754Z,8.90
2019-05-20T05:19:47.460Z,7.67
2019-05-20T05:22:17.836Z,7.58
2019-05-20T05:24:52.736Z,7.58
2019-05-20T05:27:22.989Z,7.35
2019-05-20T05:29:53.584Z,7.25
2019-05-20T05:32:42.887Z,7.40
2019-05-20T05:35:20.661Z,7.70
2019-05-20T05:37:51.392Z,7.62
2019-05-20T05:40:31.849Z,7.22
2019-05-20T05:43:02.534Z,8.48
2019-05-20T05:45:34.253Z,7.35
2019-05-20T05:48:04.638Z,7.55
2019-05-20T05:50:34.852Z,7.30
2019-05-20T05:53:05.572Z,7.42
2019-05-20T05:55:36.273Z,7.12
2019-05-20T05:58:08.778Z,7.92
2019-05-20T06:00:39.075Z,7.15
2019-05-20T06:03:09.389Z,7.35
2019-05-20T06:05:39.741Z,7.22
2019-05-20T06:08:11.415Z,6.62
2019-05-20T06:10:42.023Z,7.22
2019-05-20T06:13:12.351Z,6.62
2019-05-20T06:15:42.551Z,6.80
2019-05-20T06:18:13.240Z,6.85
2019-05-20T06:20:43.570Z,6.92
2019-05-20T06:23:13.828Z,6.62
2019-05-20T06:25:44.140Z,6.85
2019-05-20T06:28:14.750Z,6.60
2019-05-20T06:30:47.001Z,6.55
2019-05-20T06:33:17.317Z,6.45
2019-05-20T06:35:47.926Z,6.25
2019-05-20T06:38:22.158Z,6.47
2019-05-20T06:40:52.509Z,6.47
2019-05-20T06:43:23.959Z,6.30
2019-05-20T06:45:56.130Z,6.03
2019-05-20T06:48:26.424Z,6.00
2019-05-20T06:50:57.108Z,5.80
2019-05-20T06:53:27.945Z,5.58
2019-05-20T06:55:58.265Z,5.20
2019-05-20T06:58:29.131Z,5.87
2019-05-20T07:00:59.354Z,5.05
2019-05-20T07:03:29.648Z,5.10
2019-05-20T07:05:59.972Z,4.70
2019-05-20T07:08:30.901Z,4.83
2019-05-20T07:11:01.490Z,5.70
2019-05-20T07:13:32.214Z,4.45
2019-05-20T07:16:03.057Z,4.62
2019-05-20T07:18:33.551Z,5.97
2019-05-20T07:21:04.207Z,4.90
2019-05-20T07:23:34.608Z,4.20
2019-05-20T07:26:05.497Z,4.28
2019-05-20T07:28:35.994Z,4.35
2019-05-20T07:31:06.294Z,4.70
2019-05-20T07:33:36.857Z,4.35
2019-05-20T07:36:10.087Z,4.78
2019-05-20T07:38:42.538Z,5.00
2019-05-20T07:41:13.835Z,4.72
2019-05-20T07:43:44.447Z,4.70
2019-05-20T07:46:16.667Z,4.80
2019-05-20T07:48:49.043Z,4.70
2019-05-20T07:51:21.344Z,4.37
2019-05-20T07:53:52.831Z,4.60
2019-05-20T07:56:31.511Z,4.78
2019-05-20T07:59:06.201Z,4.90
2019-05-20T08:01:36.649Z,4.78
2019-05-20T08:04:07.743Z,5.20
2019-05-20T08:06:38.533Z,4.22
2019-05-20T08:09:09.445Z,4.10
2019-05-20T08:11:42.432Z,4.60
2019-05-20T08:14:12.634Z,4.53
2019-05-20T08:16:42.891Z,4.33
2019-05-20T08:19:14.895Z,4.15
2019-05-20T08:21:45.116Z,4.25
2019-05-20T08:24:15.364Z,3.92
2019-05-20T08:26:45.618Z,4.40
2019-05-20T08:29:17.452Z,4.30
2019-05-20T08:31:48.125Z,4.53
2019-05-20T08:34:18.639Z,4.20
2019-05-20T08:36:51.458Z,4.37
2019-05-20T08:39:21.696Z,3.90
2019-05-20T08:41:55.332Z,4.25
2019-05-20T08:44:25.629Z,4.30
2019-05-20T08:46:55.901Z,4.10
2019-05-20T08:49:26.142Z,4.65
2019-05-20T08:51:56.613Z,4.55
2019-05-20T08:54:26.937Z,3.90
2019-05-20T08:56:59.112Z,4.53
2019-05-20T08:59:29.743Z,4.45
2019-05-20T09:02:02.032Z,4.72
2019-05-20T09:04:32.344Z,5.20
2019-05-20T09:07:03.048Z,4.83
2019-05-20T09:09:33.993Z,4.75
2019-05-20T09:12:05.283Z,4.35
2019-05-20T09:14:40.417Z,4.58
2019-05-20T09:17:09.685Z,5.00
2019-05-20T09:19:40.335Z,4.55
2019-05-20T09:22:10.990Z,4.55
2019-05-20T09:24:42.940Z,5.15
2019-05-20T09:27:18.320Z,4.50
2019-05-20T09:32:17.929Z,4.67
2019-05-20T09:35:23.896Z,4.40
2019-05-20T09:37:36.017Z,5.37
2019-05-20T09:40:07.381Z,4.65
2019-05-20T09:42:40.967Z,5.03
2019-05-20T09:45:12.775Z,5.30
2019-05-20T09:47:43.563Z,5.28
2019-05-20T09:50:14.526Z,4.65
2019-05-20T09:52:46.675Z,4.70
2019-05-20T09:55:16.966Z,5.20
2019-05-20T09:57:47.646Z,4.80
2019-05-20T10:00:18.392Z,5.15
2019-05-20T10:02:49.103Z,5.62
2019-05-20T10:05:19.379Z,5.40
2019-05-20T10:07:49.960Z,5.53
2019-05-20T10:10:21.616Z,5.20
2019-05-20T10:12:52.486Z,5.20
2019-05-20T10:15:24.830Z,5.15
2019-05-20T10:17:55.177Z,5.37
2019-05-20T10:20:25.507Z,5.12
2019-05-20T10:22:55.774Z,5.22
2019-05-20T10:25:27.721Z,5.15
2019-05-20T10:27:58.621Z,5.78
2019-05-20T10:30:29.357Z,5.65
2019-05-20T10:32:59.748Z,5.75
2019-05-20T10:35:31.474Z,5.12
2019-05-20T10:38:02.171Z,5.65
2019-05-20T10:40:32.436Z,5.37
2019-05-20T10:43:15.155Z,5.83
2019-05-20T10:45:45.660Z,5.47
2019-05-20T10:48:17.265Z,5.95
2019-05-20T10:50:48.010Z,5.55
2019-05-20T10:53:18.805Z,6.40
2019-05-20T10:55:49.186Z,5.50
2019-05-20T10:58:22.238Z,5.83
2019-05-20T11:01:02.523Z,6.17
2019-05-20T11:03:26.524Z,6.60
2019-05-20T11:05:56.766Z,7.33
2019-05-20T11:08:27.353Z,6.37
2019-05-20T11:10:57.650Z,6.33
2019-05-20T11:13:29.719Z,6.40
2019-05-20T11:15:59.919Z,7.12
2019-05-20T11:18:51.112Z,6.87
2019-05-20T11:21:23.386Z,7.10
2019-05-20T11:23:55.437Z,6.78
2019-05-20T11:26:26.055Z,7.00
2019-05-20T11:28:56.388Z,7.03
2019-05-20T11:31:26.614Z,7.15
2019-05-20T11:33:57.806Z,6.65
2019-05-20T11:36:28.053Z,6.87
2019-05-20T11:38:59.718Z,6.80
2019-05-20T11:41:53.480Z,7.05
2019-05-20T11:44:04.415Z,6.70
2019-05-20T11:46:34.762Z,8.03
2019-05-20T11:49:05.054Z,7.62
2019-05-20T11:51:35.615Z,8.03
2019-05-20T11:54:06.289Z,8.38
2019-05-20T11:56:36.931Z,9.00
2019-05-20T11:59:08.228Z,8.05
2019-05-20T12:01:38.498Z,9.55
2019-05-20T12:04:09.087Z,9.33
2019-05-20T12:06:40.682Z,9.15
2019-05-20T12:09:11.299Z,9.60
2019-05-20T12:11:41.605Z,9.05
2019-05-20T12:14:11.830Z,10.10
2019-05-20T12:16:42.450Z,9.85
2019-05-20T12:19:13.107Z,9.43
2019-05-20T12:21:43.511Z,9.63
2019-05-20T12:24:13.778Z,10.30
2019-05-20T12:26:44.421Z,10.23
2019-05-20T12:29:17.968Z,10.60
2019-05-20T12:31:48.694Z,10.48
2019-05-20T12:34:19.038Z,10.32
2019-05-20T12:36:49.250Z,11.28
2019-05-20T12:39:19.601Z,11.70
2019-05-20T12:41:49.809Z,12.00
2019-05-20T12:44:20.258Z,12.55
2019-05-20T12:46:50.480Z,11.43
2019-05-20T12:49:20.865Z,10.68
2019-05-20T12:51:51.303Z,9.55
2019-05-20T12:54:21.696Z,9.43
2019-05-20T12:56:53.790Z,9.48
2019-05-20T12:59:26.211Z,9.60
2019-05-20T13:01:57.280Z,9.28
2019-05-20T13:04:28.465Z,10.88
2019-05-20T13:07:00.023Z,9.05
2019-05-20T13:09:30.781Z,10.28
2019-05-20T13:12:01.488Z,9.68
2019-05-20T13:14:32.225Z,9.78
2019-05-20T13:17:05.683Z,9.35
2019-05-20T13:19:36.435Z,10.28
2019-05-20T13:22:18.153Z,9.10
2019-05-20T13:24:53.192Z,9.40
2019-05-20T13:27:30.229Z,9.75
2019-05-20T13:30:02.478Z,10.48
2019-05-20T13:32:33.927Z,10.18
2019-05-20T13:35:14.521Z,9.53
2019-05-20T13:37:48.061Z,9.05
2019-05-20T13:40:21.525Z,8.83
2019-05-20T13:42:51.969Z,9.38
2019-05-20T13:45:23.526Z,8.53
2019-05-20T13:48:07.584Z,7.30
2019-05-20T13:50:41.821Z,7.22
2019-05-20T13:53:14.781Z,7.03
2019-05-20T13:55:44.563Z,6.97
2019-05-20T13:58:15.551Z,6.78
2019-05-20T14:00:47.897Z,7.08
2019-05-20T14:03:18.303Z,6.70
2019-05-20T14:05:50.409Z,5.95
2019-05-20T14:08:20.697Z,5.37
2019-05-20T14:11:03.694Z,5.40
2019-05-20T14:13:25.501Z,4.97
2019-05-20T14:15:56.307Z,4.95
2019-05-20T14:18:28.942Z,5.37
2019-05-20T14:20:59.248Z,5.05
2019-05-20T14:23:31.336Z,5.70
2019-05-20T14:26:02.647Z,5.53
2019-05-20T14:28:36.118Z,5.22
2019-05-20T14:31:10.431Z,5.28
2019-05-20T14:33:43.843Z,5.37
2019-05-20T14:36:37.892Z,5.03
2019-05-20T14:38:53.944Z,5.35
2019-05-20T14:41:25.200Z,5.28
2019-05-20T14:43:56.785Z,5.83
2019-05-20T14:46:37.348Z,5.42
2019-05-20T14:49:11.163Z,5.50
2019-05-20T14:51:42.047Z,6.28
2019-05-20T14:54:12.878Z,6.30
2019-05-20T14:56:46.933Z,6.05
2019-05-20T14:59:18.222Z,6.13
2019-05-20T15:01:49.067Z,6.22
2019-05-20T15:04:21.089Z,6.35
2019-05-20T15:06:51.465Z,7.10
2019-05-20T15:09:23.848Z,7.90
2019-05-20T15:11:58.700Z,6.95
2019-05-20T15:14:29.126Z,7.08
2019-05-20T15:16:59.503Z,7.17
2019-05-20T15:19:30.941Z,7.80
2019-05-20T15:22:01.180Z,7.45
2019-05-20T15:24:31.477Z,7.50
2019-05-20T15:27:02.271Z,7.50
2019-05-20T15:29:32.913Z,7.25
2019-05-20T15:32:03.248Z,7.80
2019-05-20T15:34:33.620Z,7.70
2019-05-20T15:37:04.553Z,8.45
2019-05-20T15:39:37.429Z,8.75
2019-05-20T15:42:09.829Z,8.03
2019-05-20T15:44:40.643Z,9.28
2019-05-20T15:47:11.930Z,8.45
2019-05-20T15:49:42.311Z,8.30
2019-05-20T15:52:13.023Z,9.10
2019-05-20T15:54:43.779Z,8.70
2019-05-20T15:57:14.104Z,9.18
2019-05-20T15:59:46.586Z,8.45
2019-05-20T16:02:19.875Z,8.73
2019-05-20T16:04:50.135Z,8.23
2019-05-20T16:07:20.382Z,8.78
2019-05-20T16:09:50.712Z,9.03
2019-05-20T16:12:21.343Z,8.93
2019-05-20T16:14:51.990Z,9.45
2019-05-20T16:17:22.523Z,10.13
2019-05-20T16:19:53.141Z,10.98
2019-05-20T16:22:23.412Z,11.80
2019-05-20T16:24:53.748Z,11.00
2019-05-20T16:27:24.613Z,12.25
2019-05-20T16:30:06.367Z,12.05
2019-05-20T16:32:27.415Z,14.07
2019-05-20T16:34:58.014Z,14.80
2019-05-20T16:37:28.300Z,15.55
2019-05-20T16:39:58.896Z,15.50
2019-05-20T16:42:29.684Z,17.48
2019-05-20T16:45:00.106Z,17.90
2019-05-20T16:47:30.323Z,18.75
2019-05-20T16:50:00.926Z,19.60
2019-05-20T16:52:33.407Z,18.67
2019-05-20T16:55:04.842Z,17.80
2019-05-20T16:57:35.575Z,22.80
2019-05-20T17:00:28.992Z,22.07
2019-05-20T17:02:42.254Z,23.73
2019-05-20T17:05:12.663Z,20.95
2019-05-20T17:07:43.317Z,21.35
2019-05-20T17:10:15.087Z,22.00
2019-05-20T17:12:45.537Z,18.77
2019-05-20T17:15:17.396Z,22.27
2019-05-20T17:17:47.640Z,18.10
2019-05-20T17:20:17.959Z,21.07
2019-05-20T17:22:48.522Z,18.82
2019-05-20T17:25:18.774Z,23.32
2019-05-20T17:27:49.722Z,19.87
2019-05-20T17:30:20.804Z,21.33
2019-05-20T17:32:51.590Z,23.32
2019-05-20T17:35:22.588Z,23.27
2019-05-20T17:37:55.262Z,23.47
2019-05-20T17:40:25.756Z,23.77
2019-05-20T17:42:56.067Z,22.77
2019-05-20T17:45:26.279Z,24.02
2019-05-20T17:47:56.503Z,22.73
2019-05-20T17:50:27.497Z,22.90
2019-05-20T17:52:57.796Z,23.67
2019-05-20T17:55:29.557Z,23.02
2019-05-20T17:58:01.820Z,23.80
2019-05-20T18:00:32.194Z,23.22
2019-05-20T18:03:02.443Z,20.90
2019-05-20T18:05:32.673Z,20.60
2019-05-20T18:08:02.903Z,22.52
2019-05-20T18:10:33.133Z,22.02
2019-05-20T18:13:03.348Z,23.77
2019-05-20T18:15:34.080Z,25.02
2019-05-20T18:18:04.706Z,26.05
2019-05-20T18:20:35.244Z,26.40
2019-05-20T18:23:05.917Z,26.75
2019-05-20T18:25:36.571Z,26.97
2019-05-20T18:28:06.915Z,26.00
2019-05-20T18:30:38.310Z,26.62
2019-05-20T18:33:08.627Z,25.65
2019-05-20T18:35:38.868Z,26.25
2019-05-20T18:38:09.207Z,27.20
2019-05-20T18:40:41.560Z,28.32
2019-05-20T18:43:11.938Z,28.27
2019-05-20T18:45:42.582Z,28.83
2019-05-20T18:48:12.871Z,27.77
2019-05-20T18:50:43.118Z,25.48
2019-05-20T18:53:13.495Z,27.62
2019-05-20T18:55:44.239Z,31.77
2019-05-20T18:58:14.712Z,35.28
2019-05-20T19:00:45.465Z,28.62
2019-05-20T19:03:16.169Z,27.73
2019-05-20T19:05:47.150Z,25.85
2019-05-20T19:08:17.586Z,27.62
2019-05-20T19:10:47.986Z,27.48
2019-05-20T19:13:18.322Z,29.77
2019-05-20T19:15:48.556Z,30.00
2019-05-20T19:18:19.263Z,29.82
2019-05-20T19:20:55.830Z,29.35
2019-05-20T19:23:26.138Z,30.30
2019-05-20T19:25:58.363Z,31.23
2019-05-20T19:28:28.669Z,32.08
2019-05-20T19:30:59.813Z,33.20
2019-05-20T19:33:30.222Z,31.73
2019-05-20T19:36:00.494Z,31.00
2019-05-20T19:38:34.697Z,30.30
2019-05-20T19:41:03.265Z,30.40
2019-05-20T19:43:33.984Z,30.05
2019-05-20T19:46:04.944Z,29.87
2019-05-20T19:48:35.289Z,29.52
2019-05-20T19:51:05.545Z,27.70
2019-05-20T19:53:40.592Z,28.90
2019-05-20T19:56:13.157Z,27.98
2019-05-20T19:58:45.942Z,29.27
2019-05-20T20:01:16.267Z,27.37
2019-05-20T20:03:47.147Z,29.42
2019-05-20T20:06:23.510Z,30.02
2019-05-20T20:08:54.184Z,28.40
2019-05-20T20:11:27.821Z,27.82
2019-05-20T20:13:58.908Z,29.55
2019-05-20T20:16:29.503Z,33.42
2019-05-20T20:19:00.082Z,32.90
2019-05-20T20:21:37.204Z,40.35
2019-05-20T20:24:16.536Z,39.95
2019-05-20T20:26:48.191Z,43.87
2019-05-20T20:46:09.978Z,40.52
2019-05-20T20:48:40.262Z,35.00
2019-05-20T20:51:10.864Z,34.75
2019-05-20T20:53:41.190Z,32.80
2019-05-20T20:56:24.108Z,33.63
2019-05-20T20:58:43.840Z,34.78
2019-05-20T21:01:14.063Z,36.38
2019-05-20T21:03:44.355Z,37.45
2019-05-20T21:06:14.948Z,39.53
2019-05-20T21:08:45.315Z,38.28
2019-05-20T21:11:15.890Z,39.75
2019-05-20T21:13:46.208Z,39.10
2019-05-20T21:16:16.435Z,39.60
2019-05-20T21:18:47.142Z,39.55
2019-05-20T21:21:17.413Z,37.33
2019-05-20T21:23:48.053Z,41.68
2019-05-20T21:26:18.620Z,39.05
2019-05-20T21:28:49.215Z,38.40
2019-05-20T21:31:19.892Z,38.02
2019-05-20T21:33:50.220Z,37.65
2019-05-20T21:36:20.531Z,36.88
2019-05-20T21:38:52.303Z,37.50
2019-05-20T21:41:23.210Z,36.83
2019-05-20T21:43:53.623Z,36.53
2019-05-20T21:46:23.907Z,35.55
2019-05-20T21:48:54.548Z,38.38
2019-05-20T21:51:25.382Z,38.83
2019-05-20T21:53:55.723Z,38.35
2019-05-20T21:56:25.958Z,38.80
2019-05-20T21:58:56.289Z,39.33
2019-05-20T22:01:26.952Z,39.75
2019-05-20T22:03:57.688Z,39.18
2019-05-20T22:06:27.998Z,39.63
2019-05-20T22:08:58.220Z,38.73
2019-05-20T22:11:28.545Z,40.12
2019-05-20T22:14:00.434Z,40.30
2019-05-20T22:16:31.509Z,42.13
2019-05-20T22:19:01.820Z,43.17
2019-05-20T22:21:33.680Z,42.70
2019-05-20T22:24:05.775Z,42.70
2019-05-20T22:26:36.352Z,44.75
2019-05-20T22:29:06.763Z,43.95
2019-05-20T22:31:36.985Z,40.40
2019-05-20T22:34:07.414Z,39.67
2019-05-20T22:36:37.655Z,40.20
2019-05-20T22:39:09.386Z,37.45
2019-05-20T22:41:39.791Z,33.73
2019-05-20T22:44:11.245Z,32.28
2019-05-20T22:46:41.469Z,27.62
2019-05-20T22:49:11.896Z,26.00
2019-05-20T22:51:42.111Z,26.23
2019-05-20T22:54:12.381Z,25.00
2019-05-20T22:56:43.072Z,24.92
2019-05-20T22:59:13.948Z,23.73
2019-05-20T23:01:44.169Z,23.20
2019-05-20T23:04:14.796Z,21.90
2019-05-20T23:06:45.448Z,20.97
2019-05-20T23:09:16.102Z,20.72
2019-05-20T23:11:46.387Z,20.23
2019-05-20T23:14:16.745Z,19.90
2019-05-20T23:16:46.974Z,21.40
2019-05-20T23:19:17.223Z,20.02
2019-05-20T23:21:47.490Z,18.48
2019-05-20T23:24:18.045Z,18.40
2019-05-20T23:26:48.714Z,17.48
2019-05-20T23:29:19.574Z,18.70
2019-05-20T23:31:50.168Z,18.50
2019-05-20T23:34:20.829Z,17.40
2019-05-20T23:36:51.495Z,17.32
2019-05-20T23:39:22.137Z,18.75
2019-05-20T23:41:52.445Z,16.65
2019-05-20T23:44:22.663Z,17.65
2019-05-20T23:46:52.987Z,17.05
2019-05-20T23:49:23.190Z,16.90
2019-05-20T23:51:53.867Z,15.00
2019-05-20T23:54:24.534Z,15.38
2019-05-20T23:56:54.817Z,15.58
2019-05-20T23:59:25.445Z,15.15
